Flugmeteorologie

  • METAR LHSM 221445Z 35005KT CAVOK 24/11 Q1017 NOSIG=
  • METAR LHSM 221415Z 35004KT CAVOK 24/12 Q1017 NOSIG=
  • METAR LHSM 221345Z 34005KT CAVOK 24/11 Q1017 NOSIG=
  • METAR LHSM 221315Z 36005KT CAVOK 24/10 Q1017 NOSIG=
  • METAR LHSM 221245Z 32006KT CAVOK 24/12 Q1018 NOSIG=

  • TAF LHSM 221115Z 2212/2221 33007KT CAVOK=
  • TAF LHSM 220815Z 2209/2218 33010KT CAVOK=
  • TAF LHSM 220515Z 2206/2215 33010KT CAVOK=
  • TAF LHSM 211115Z 2112/2121 34025G40KT 9999 SCT033
  • TAF LHSM 210815Z 2109/2118 34025G40KT 9999 SCT025